sensor_id;sensor_type;location;lat;lon;timestamp;P1;durP1;ratioP1;P2;durP2;ratioP2
43626;SDS011;29217;52.586;13.442;2023-04-06T00:00:30;14.05;;;7.00;;
43626;SDS011;29217;52.586;13.442;2023-04-06T00:02:56;13.77;;;7.22;;
43626;SDS011;29217;52.586;13.442;2023-04-06T00:05:21;14.88;;;7.28;;
43626;SDS011;29217;52.586;13.442;2023-04-06T00:07:48;13.63;;;7.03;;
43626;SDS011;29217;52.586;13.442;2023-04-06T00:10:15;15.52;;;7.75;;
43626;SDS011;29217;52.586;13.442;2023-04-06T00:12:41;16.48;;;7.88;;
43626;SDS011;29217;52.586;13.442;2023-04-06T00:15:07;10.63;;;7.07;;
43626;SDS011;29217;52.586;13.442;2023-04-06T00:17:33;13.65;;;7.22;;
43626;SDS011;29217;52.586;13.442;2023-04-06T00:19:59;14.65;;;7.40;;
43626;SDS011;29217;52.586;13.442;2023-04-06T00:22:25;9.98;;;6.50;;
43626;SDS011;29217;52.586;13.442;2023-04-06T00:24:51;12.85;;;7.25;;
43626;SDS011;29217;52.586;13.442;2023-04-06T00:27:16;9.70;;;6.35;;
43626;SDS011;29217;52.586;13.442;2023-04-06T00:29:43;13.18;;;6.90;;
43626;SDS011;29217;52.586;13.442;2023-04-06T00:32:09;11.55;;;6.15;;
43626;SDS011;29217;52.586;13.442;2023-04-06T00:34:35;9.20;;;6.03;;
43626;SDS011;29217;52.586;13.442;2023-04-06T00:37:00;15.38;;;6.57;;
43626;SDS011;29217;52.586;13.442;2023-04-06T00:39:26;9.77;;;5.75;;
43626;SDS011;29217;52.586;13.442;2023-04-06T00:41:52;12.10;;;6.32;;
43626;SDS011;29217;52.586;13.442;2023-04-06T00:44:18;8.57;;;5.43;;
43626;SDS011;29217;52.586;13.442;2023-04-06T00:46:45;10.00;;;5.80;;
43626;SDS011;29217;52.586;13.442;2023-04-06T00:49:11;8.48;;;5.78;;
43626;SDS011;29217;52.586;13.442;2023-04-06T00:51:37;11.05;;;6.15;;
43626;SDS011;29217;52.586;13.442;2023-04-06T00:54:02;11.00;;;5.53;;
43626;SDS011;29217;52.586;13.442;2023-04-06T00:56:28;10.13;;;5.72;;
43626;SDS011;29217;52.586;13.442;2023-04-06T00:58:54;11.38;;;5.55;;
43626;SDS011;29217;52.586;13.442;2023-04-06T01:01:20;11.55;;;5.95;;
43626;SDS011;29217;52.586;13.442;2023-04-06T01:03:46;10.52;;;5.25;;
43626;SDS011;29217;52.586;13.442;2023-04-06T01:06:14;8.57;;;5.55;;
43626;SDS011;29217;52.586;13.442;2023-04-06T01:08:40;8.50;;;5.43;;
43626;SDS011;29217;52.586;13.442;2023-04-06T01:11:06;13.90;;;7.20;;
43626;SDS011;29217;52.586;13.442;2023-04-06T01:13:31;18.60;;;7.97;;
43626;SDS011;29217;52.586;13.442;2023-04-06T01:15:57;22.02;;;7.63;;
43626;SDS011;29217;52.586;13.442;2023-04-06T01:18:26;16.60;;;7.82;;
43626;SDS011;29217;52.586;13.442;2023-04-06T01:20:53;21.08;;;8.10;;
43626;SDS011;29217;52.586;13.442;2023-04-06T01:23:18;18.13;;;7.45;;
43626;SDS011;29217;52.586;13.442;2023-04-06T01:25:44;14.18;;;7.15;;
43626;SDS011;29217;52.586;13.442;2023-04-06T01:28:10;11.60;;;6.63;;
43626;SDS011;29217;52.586;13.442;2023-04-06T01:30:36;14.20;;;7.25;;
43626;SDS011;29217;52.586;13.442;2023-04-06T01:33:01;10.20;;;6.10;;
43626;SDS011;29217;52.586;13.442;2023-04-06T01:35:27;13.50;;;6.60;;
43626;SDS011;29217;52.586;13.442;2023-04-06T01:37:53;15.07;;;6.80;;
43626;SDS011;29217;52.586;13.442;2023-04-06T01:40:19;22.55;;;8.27;;
43626;SDS011;29217;52.586;13.442;2023-04-06T01:42:45;18.52;;;8.13;;
43626;SDS011;29217;52.586;13.442;2023-04-06T01:45:11;11.63;;;6.63;;
43626;SDS011;29217;52.586;13.442;2023-04-06T01:47:37;14.57;;;7.45;;
43626;SDS011;29217;52.586;13.442;2023-04-06T01:50:02;11.00;;;6.90;;
43626;SDS011;29217;52.586;13.442;2023-04-06T01:52:31;13.45;;;6.70;;
43626;SDS011;29217;52.586;13.442;2023-04-06T01:54:57;14.93;;;7.70;;
43626;SDS011;29217;52.586;13.442;2023-04-06T01:57:23;16.95;;;6.57;;
43626;SDS011;29217;52.586;13.442;2023-04-06T01:59:50;11.57;;;6.03;;
43626;SDS011;29217;52.586;13.442;2023-04-06T02:02:16;15.25;;;7.13;;
43626;SDS011;29217;52.586;13.442;2023-04-06T02:04:42;11.45;;;6.80;;
43626;SDS011;29217;52.586;13.442;2023-04-06T02:07:07;10.40;;;6.20;;
43626;SDS011;29217;52.586;13.442;2023-04-06T02:09:33;10.05;;;6.22;;
43626;SDS011;29217;52.586;13.442;2023-04-06T02:11:59;15.40;;;6.78;;
43626;SDS011;29217;52.586;13.442;2023-04-06T02:14:26;8.35;;;6.05;;
43626;SDS011;29217;52.586;13.442;2023-04-06T02:16:52;10.45;;;5.95;;
43626;SDS011;29217;52.586;13.442;2023-04-06T02:19:17;10.98;;;6.18;;
43626;SDS011;29217;52.586;13.442;2023-04-06T02:21:43;8.93;;;6.05;;
43626;SDS011;29217;52.586;13.442;2023-04-06T02:24:09;10.77;;;5.80;;
43626;SDS011;29217;52.586;13.442;2023-04-06T02:26:34;13.05;;;5.70;;
43626;SDS011;29217;52.586;13.442;2023-04-06T02:29:00;9.45;;;6.22;;
43626;SDS011;29217;52.586;13.442;2023-04-06T02:31:27;15.55;;;7.05;;
43626;SDS011;29217;52.586;13.442;2023-04-06T02:33:53;10.20;;;5.65;;
43626;SDS011;29217;52.586;13.442;2023-04-06T02:36:19;11.27;;;6.20;;
43626;SDS011;29217;52.586;13.442;2023-04-06T02:38:45;13.82;;;6.85;;
43626;SDS011;29217;52.586;13.442;2023-04-06T02:41:10;10.55;;;6.32;;
43626;SDS011;29217;52.586;13.442;2023-04-06T02:43:36;11.73;;;6.60;;
43626;SDS011;29217;52.586;13.442;2023-04-06T02:46:02;15.35;;;6.53;;
43626;SDS011;29217;52.586;13.442;2023-04-06T02:48:27;18.67;;;8.10;;
43626;SDS011;29217;52.586;13.442;2023-04-06T02:50:53;27.88;;;9.45;;
43626;SDS011;29217;52.586;13.442;2023-04-06T02:53:19;31.15;;;9.73;;
43626;SDS011;29217;52.586;13.442;2023-04-06T02:55:45;18.77;;;8.35;;
43626;SDS011;29217;52.586;13.442;2023-04-06T02:58:10;15.18;;;6.65;;
43626;SDS011;29217;52.586;13.442;2023-04-06T03:00:36;12.82;;;7.03;;
43626;SDS011;29217;52.586;13.442;2023-04-06T03:03:02;14.18;;;6.97;;
43626;SDS011;29217;52.586;13.442;2023-04-06T03:05:28;12.48;;;7.03;;
43626;SDS011;29217;52.586;13.442;2023-04-06T03:07:53;14.07;;;7.35;;
43626;SDS011;29217;52.586;13.442;2023-04-06T03:10:19;11.27;;;7.10;;
43626;SDS011;29217;52.586;13.442;2023-04-06T03:12:45;13.10;;;6.85;;
43626;SDS011;29217;52.586;13.442;2023-04-06T03:15:11;14.52;;;7.95;;
43626;SDS011;29217;52.586;13.442;2023-04-06T03:17:36;17.92;;;9.07;;
43626;SDS011;29217;52.586;13.442;2023-04-06T03:20:02;16.23;;;8.27;;
43626;SDS011;29217;52.586;13.442;2023-04-06T03:22:29;15.88;;;7.78;;
43626;SDS011;29217;52.586;13.442;2023-04-06T03:24:54;14.82;;;8.63;;
43626;SDS011;29217;52.586;13.442;2023-04-06T03:27:20;14.05;;;7.78;;
43626;SDS011;29217;52.586;13.442;2023-04-06T03:29:46;12.43;;;7.55;;
43626;SDS011;29217;52.586;13.442;2023-04-06T03:32:12;15.23;;;7.80;;
43626;SDS011;29217;52.586;13.442;2023-04-06T03:34:38;14.50;;;7.45;;
43626;SDS011;29217;52.586;13.442;2023-04-06T03:37:04;16.25;;;7.68;;
43626;SDS011;29217;52.586;13.442;2023-04-06T03:39:30;13.05;;;7.93;;
43626;SDS011;29217;52.586;13.442;2023-04-06T03:41:55;13.93;;;8.05;;
43626;SDS011;29217;52.586;13.442;2023-04-06T03:44:21;11.38;;;7.63;;
43626;SDS011;29217;52.586;13.442;2023-04-06T03:46:47;16.67;;;8.15;;
43626;SDS011;29217;52.586;13.442;2023-04-06T03:49:12;12.75;;;7.53;;
43626;SDS011;29217;52.586;13.442;2023-04-06T03:51:38;16.83;;;8.00;;
43626;SDS011;29217;52.586;13.442;2023-04-06T03:54:04;21.08;;;6.47;;
43626;SDS011;29217;52.586;13.442;2023-04-06T03:56:30;19.70;;;7.90;;
43626;SDS011;29217;52.586;13.442;2023-04-06T03:58:56;13.85;;;7.15;;
43626;SDS011;29217;52.586;13.442;2023-04-06T04:01:21;15.85;;;8.13;;
43626;SDS011;29217;52.586;13.442;2023-04-06T04:03:47;20.52;;;10.13;;
43626;SDS011;29217;52.586;13.442;2023-04-06T04:06:13;18.95;;;10.02;;
43626;SDS011;29217;52.586;13.442;2023-04-06T04:08:39;21.92;;;9.55;;
43626;SDS011;29217;52.586;13.442;2023-04-06T04:11:05;15.38;;;8.90;;
43626;SDS011;29217;52.586;13.442;2023-04-06T04:13:30;20.77;;;9.55;;
43626;SDS011;29217;52.586;13.442;2023-04-06T04:15:56;20.65;;;8.38;;
43626;SDS011;29217;52.586;13.442;2023-04-06T04:18:21;17.20;;;8.80;;
43626;SDS011;29217;52.586;13.442;2023-04-06T04:20:47;15.85;;;9.75;;
43626;SDS011;29217;52.586;13.442;2023-04-06T04:23:13;16.42;;;9.13;;
43626;SDS011;29217;52.586;13.442;2023-04-06T04:25:38;18.02;;;8.70;;
43626;SDS011;29217;52.586;13.442;2023-04-06T04:28:04;14.88;;;8.77;;
43626;SDS011;29217;52.586;13.442;2023-04-06T04:30:30;15.52;;;9.02;;
43626;SDS011;29217;52.586;13.442;2023-04-06T04:32:55;17.00;;;9.82;;
43626;SDS011;29217;52.586;13.442;2023-04-06T04:35:21;22.25;;;8.48;;
43626;SDS011;29217;52.586;13.442;2023-04-06T04:37:47;22.13;;;8.25;;
43626;SDS011;29217;52.586;13.442;2023-04-06T04:40:12;25.15;;;12.10;;
43626;SDS011;29217;52.586;13.442;2023-04-06T04:42:38;24.67;;;10.82;;
43626;SDS011;29217;52.586;13.442;2023-04-06T04:45:04;22.88;;;9.93;;
43626;SDS011;29217;52.586;13.442;2023-04-06T04:47:30;18.48;;;8.70;;
43626;SDS011;29217;52.586;13.442;2023-04-06T04:49:55;16.58;;;8.43;;
43626;SDS011;29217;52.586;13.442;2023-04-06T04:52:21;15.57;;;7.43;;
43626;SDS011;29217;52.586;13.442;2023-04-06T04:54:47;14.80;;;8.38;;
43626;SDS011;29217;52.586;13.442;2023-04-06T04:57:12;13.13;;;7.50;;
43626;SDS011;29217;52.586;13.442;2023-04-06T04:59:38;15.38;;;7.45;;
43626;SDS011;29217;52.586;13.442;2023-04-06T05:02:04;13.77;;;8.50;;
43626;SDS011;29217;52.586;13.442;2023-04-06T05:04:30;14.35;;;7.25;;
43626;SDS011;29217;52.586;13.442;2023-04-06T05:07:05;16.98;;;7.28;;
43626;SDS011;29217;52.586;13.442;2023-04-06T05:09:31;13.88;;;6.38;;
43626;SDS011;29217;52.586;13.442;2023-04-06T05:11:58;16.95;;;7.97;;
43626;SDS011;29217;52.586;13.442;2023-04-06T05:14:24;13.25;;;7.80;;
43626;SDS011;29217;52.586;13.442;2023-04-06T05:16:50;12.32;;;7.15;;
43626;SDS011;29217;52.586;13.442;2023-04-06T05:19:16;11.88;;;7.35;;
43626;SDS011;29217;52.586;13.442;2023-04-06T05:21:42;11.68;;;6.82;;
43626;SDS011;29217;52.586;13.442;2023-04-06T05:24:08;15.43;;;7.90;;
43626;SDS011;29217;52.586;13.442;2023-04-06T05:26:33;18.77;;;7.45;;
43626;SDS011;29217;52.586;13.442;2023-04-06T05:28:59;12.77;;;7.18;;
43626;SDS011;29217;52.586;13.442;2023-04-06T05:31:25;15.15;;;8.15;;
43626;SDS011;29217;52.586;13.442;2023-04-06T05:33:51;13.10;;;7.45;;
43626;SDS011;29217;52.586;13.442;2023-04-06T05:36:17;21.05;;;7.38;;
43626;SDS011;29217;52.586;13.442;2023-04-06T05:38:42;14.18;;;7.20;;
43626;SDS011;29217;52.586;13.442;2023-04-06T05:41:08;11.80;;;7.78;;
43626;SDS011;29217;52.586;13.442;2023-04-06T05:43:34;19.40;;;7.63;;
43626;SDS011;29217;52.586;13.442;2023-04-06T05:45:59;12.70;;;6.93;;
43626;SDS011;29217;52.586;13.442;2023-04-06T05:48:25;16.60;;;7.13;;
43626;SDS011;29217;52.586;13.442;2023-04-06T05:50:51;11.98;;;7.15;;
43626;SDS011;29217;52.586;13.442;2023-04-06T05:53:16;10.48;;;6.90;;
43626;SDS011;29217;52.586;13.442;2023-04-06T05:55:42;20.25;;;7.72;;
43626;SDS011;29217;52.586;13.442;2023-04-06T05:58:08;14.27;;;8.75;;
43626;SDS011;29217;52.586;13.442;2023-04-06T06:00:34;17.67;;;9.85;;
43626;SDS011;29217;52.586;13.442;2023-04-06T06:03:00;22.23;;;9.18;;
43626;SDS011;29217;52.586;13.442;2023-04-06T06:05:29;16.85;;;7.85;;
43626;SDS011;29217;52.586;13.442;2023-04-06T06:07:55;14.13;;;8.35;;
43626;SDS011;29217;52.586;13.442;2023-04-06T06:10:20;13.68;;;7.35;;
43626;SDS011;29217;52.586;13.442;2023-04-06T06:12:46;13.90;;;8.00;;
43626;SDS011;29217;52.586;13.442;2023-04-06T06:15:12;14.65;;;6.90;;
43626;SDS011;29217;52.586;13.442;2023-04-06T06:17:37;15.20;;;6.78;;
43626;SDS011;29217;52.586;13.442;2023-04-06T06:20:05;14.65;;;7.38;;
43626;SDS011;29217;52.586;13.442;2023-04-06T06:22:31;10.05;;;5.85;;
43626;SDS011;29217;52.586;13.442;2023-04-06T06:24:57;11.70;;;6.18;;
43626;SDS011;29217;52.586;13.442;2023-04-06T06:27:23;12.57;;;6.75;;
43626;SDS011;29217;52.586;13.442;2023-04-06T06:29:48;11.07;;;5.68;;
43626;SDS011;29217;52.586;13.442;2023-04-06T06:32:14;12.13;;;6.40;;
43626;SDS011;29217;52.586;13.442;2023-04-06T06:34:40;11.93;;;6.50;;
43626;SDS011;29217;52.586;13.442;2023-04-06T06:37:05;13.50;;;6.32;;
43626;SDS011;29217;52.586;13.442;2023-04-06T06:39:31;9.00;;;5.68;;
43626;SDS011;29217;52.586;13.442;2023-04-06T06:41:57;17.55;;;6.40;;
43626;SDS011;29217;52.586;13.442;2023-04-06T06:44:25;10.20;;;5.68;;
43626;SDS011;29217;52.586;13.442;2023-04-06T06:46:51;11.02;;;6.10;;
43626;SDS011;29217;52.586;13.442;2023-04-06T06:49:17;12.55;;;5.97;;
43626;SDS011;29217;52.586;13.442;2023-04-06T06:51:43;12.02;;;5.70;;
43626;SDS011;29217;52.586;13.442;2023-04-06T06:54:10;11.13;;;5.68;;
43626;SDS011;29217;52.586;13.442;2023-04-06T06:56:36;11.65;;;5.57;;
43626;SDS011;29217;52.586;13.442;2023-04-06T06:59:03;10.23;;;6.50;;
43626;SDS011;29217;52.586;13.442;2023-04-06T07:01:29;9.85;;;5.22;;
43626;SDS011;29217;52.586;13.442;2023-04-06T07:03:55;9.98;;;5.30;;
43626;SDS011;29217;52.586;13.442;2023-04-06T07:06:20;10.15;;;5.43;;
43626;SDS011;29217;52.586;13.442;2023-04-06T07:08:46;11.27;;;6.05;;
43626;SDS011;29217;52.586;13.442;2023-04-06T07:11:12;11.55;;;5.60;;
43626;SDS011;29217;52.586;13.442;2023-04-06T07:13:37;9.60;;;5.30;;
43626;SDS011;29217;52.586;13.442;2023-04-06T07:16:03;6.72;;;4.78;;
43626;SDS011;29217;52.586;13.442;2023-04-06T07:18:29;8.07;;;4.80;;
43626;SDS011;29217;52.586;13.442;2023-04-06T07:20:54;10.50;;;5.28;;
43626;SDS011;29217;52.586;13.442;2023-04-06T07:23:20;9.13;;;4.65;;
43626;SDS011;29217;52.586;13.442;2023-04-06T07:25:46;9.20;;;4.65;;
43626;SDS011;29217;52.586;13.442;2023-04-06T07:28:12;8.00;;;4.88;;
43626;SDS011;29217;52.586;13.442;2023-04-06T07:30:37;7.07;;;4.63;;
43626;SDS011;29217;52.586;13.442;2023-04-06T07:33:03;12.02;;;4.97;;
43626;SDS011;29217;52.586;13.442;2023-04-06T07:35:30;9.93;;;4.60;;
43626;SDS011;29217;52.586;13.442;2023-04-06T07:37:56;7.65;;;5.07;;
43626;SDS011;29217;52.586;13.442;2023-04-06T07:40:22;5.68;;;3.65;;
43626;SDS011;29217;52.586;13.442;2023-04-06T07:42:47;9.60;;;5.20;;
43626;SDS011;29217;52.586;13.442;2023-04-06T07:45:13;10.73;;;4.43;;
43626;SDS011;29217;52.586;13.442;2023-04-06T07:47:40;8.68;;;5.18;;
43626;SDS011;29217;52.586;13.442;2023-04-06T07:50:07;8.02;;;4.55;;
43626;SDS011;29217;52.586;13.442;2023-04-06T07:52:33;18.63;;;4.75;;
43626;SDS011;29217;52.586;13.442;2023-04-06T07:54:59;7.07;;;3.80;;
43626;SDS011;29217;52.586;13.442;2023-04-06T07:57:25;31.92;;;4.75;;
43626;SDS011;29217;52.586;13.442;2023-04-06T07:59:50;7.63;;;4.40;;
43626;SDS011;29217;52.586;13.442;2023-04-06T08:02:16;8.30;;;3.47;;
43626;SDS011;29217;52.586;13.442;2023-04-06T08:04:42;6.75;;;3.72;;
43626;SDS011;29217;52.586;13.442;2023-04-06T08:07:08;6.20;;;3.80;;
43626;SDS011;29217;52.586;13.442;2023-04-06T08:09:34;5.70;;;3.60;;
43626;SDS011;29217;52.586;13.442;2023-04-06T08:12:00;6.78;;;4.35;;
43626;SDS011;29217;52.586;13.442;2023-04-06T08:14:25;7.18;;;3.05;;
43626;SDS011;29217;52.586;13.442;2023-04-06T08:16:51;4.75;;;3.33;;
43626;SDS011;29217;52.586;13.442;2023-04-06T08:19:17;5.57;;;3.17;;
43626;SDS011;29217;52.586;13.442;2023-04-06T08:21:43;6.72;;;3.25;;
43626;SDS011;29217;52.586;13.442;2023-04-06T08:24:11;7.47;;;3.65;;
43626;SDS011;29217;52.586;13.442;2023-04-06T08:26:37;5.22;;;3.25;;
43626;SDS011;29217;52.586;13.442;2023-04-06T08:29:03;7.13;;;3.58;;
43626;SDS011;29217;52.586;13.442;2023-04-06T08:31:29;8.98;;;3.63;;
43626;SDS011;29217;52.586;13.442;2023-04-06T08:33:55;9.02;;;4.15;;
43626;SDS011;29217;52.586;13.442;2023-04-06T08:36:21;7.50;;;3.83;;
43626;SDS011;29217;52.586;13.442;2023-04-06T08:38:48;6.90;;;3.45;;
43626;SDS011;29217;52.586;13.442;2023-04-06T08:41:14;5.25;;;3.03;;
43626;SDS011;29217;52.586;13.442;2023-04-06T08:43:49;5.95;;;3.30;;
43626;SDS011;29217;52.586;13.442;2023-04-06T08:46:20;10.70;;;2.75;;
43626;SDS011;29217;52.586;13.442;2023-04-06T08:48:46;9.73;;;3.05;;
43626;SDS011;29217;52.586;13.442;2023-04-06T08:51:15;8.18;;;3.05;;
43626;SDS011;29217;52.586;13.442;2023-04-06T08:53:40;3.05;;;1.90;;
43626;SDS011;29217;52.586;13.442;2023-04-06T08:56:06;4.18;;;2.58;;
43626;SDS011;29217;52.586;13.442;2023-04-06T08:58:38;4.15;;;2.22;;
43626;SDS011;29217;52.586;13.442;2023-04-06T09:01:08;3.47;;;2.13;;
43626;SDS011;29217;52.586;13.442;2023-04-06T09:03:37;3.58;;;2.03;;
43626;SDS011;29217;52.586;13.442;2023-04-06T09:06:07;3.85;;;2.10;;
43626;SDS011;29217;52.586;13.442;2023-04-06T09:08:34;4.03;;;2.58;;
43626;SDS011;29217;52.586;13.442;2023-04-06T09:11:03;4.57;;;2.47;;
43626;SDS011;29217;52.586;13.442;2023-04-06T09:13:29;3.28;;;2.30;;
43626;SDS011;29217;52.586;13.442;2023-04-06T09:16:02;4.13;;;2.63;;
43626;SDS011;29217;52.586;13.442;2023-04-06T09:18:32;4.00;;;2.47;;
43626;SDS011;29217;52.586;13.442;2023-04-06T09:21:03;3.65;;;2.53;;
43626;SDS011;29217;52.586;13.442;2023-04-06T09:23:30;6.28;;;2.40;;
43626;SDS011;29217;52.586;13.442;2023-04-06T09:26:15;2.45;;;2.03;;
43626;SDS011;29217;52.586;13.442;2023-04-06T09:28:48;4.72;;;2.97;;
43626;SDS011;29217;52.586;13.442;2023-04-06T09:31:20;4.43;;;2.00;;
43626;SDS011;29217;52.586;13.442;2023-04-06T09:33:51;11.45;;;2.08;;
43626;SDS011;29217;52.586;13.442;2023-04-06T09:36:17;3.85;;;2.00;;
43626;SDS011;29217;52.586;13.442;2023-04-06T09:38:53;3.35;;;2.05;;
43626;SDS011;29217;52.586;13.442;2023-04-06T09:41:40;5.03;;;2.25;;
43626;SDS011;29217;52.586;13.442;2023-04-06T09:44:09;1.95;;;1.67;;
43626;SDS011;29217;52.586;13.442;2023-04-06T09:46:42;5.63;;;2.10;;
43626;SDS011;29217;52.586;13.442;2023-04-06T09:49:10;2.67;;;1.75;;
43626;SDS011;29217;52.586;13.442;2023-04-06T09:51:38;4.43;;;1.77;;
43626;SDS011;29217;52.586;13.442;2023-04-06T09:54:15;2.95;;;2.00;;
43626;SDS011;29217;52.586;13.442;2023-04-06T09:56:46;10.70;;;2.30;;
43626;SDS011;29217;52.586;13.442;2023-04-06T09:59:21;4.47;;;2.05;;
43626;SDS011;29217;52.586;13.442;2023-04-06T10:02:01;5.20;;;2.20;;
43626;SDS011;29217;52.586;13.442;2023-04-06T10:04:37;3.22;;;2.05;;
43626;SDS011;29217;52.586;13.442;2023-04-06T10:07:07;3.38;;;1.80;;
43626;SDS011;29217;52.586;13.442;2023-04-06T10:09:36;7.05;;;2.35;;
43626;SDS011;29217;52.586;13.442;2023-04-06T10:12:05;6.50;;;2.53;;
43626;SDS011;29217;52.586;13.442;2023-04-06T10:14:34;3.78;;;1.90;;
43626;SDS011;29217;52.586;13.442;2023-04-06T10:17:02;5.22;;;1.90;;
43626;SDS011;29217;52.586;13.442;2023-04-06T10:19:32;3.00;;;1.58;;
43626;SDS011;29217;52.586;13.442;2023-04-06T10:22:24;3.30;;;1.85;;
43626;SDS011;29217;52.586;13.442;2023-04-06T10:24:56;2.70;;;2.05;;
43626;SDS011;29217;52.586;13.442;2023-04-06T10:27:28;22.50;;;2.92;;
43626;SDS011;29217;52.586;13.442;2023-04-06T10:29:55;4.53;;;2.42;;
43626;SDS011;29217;52.586;13.442;2023-04-06T10:32:36;3.10;;;1.70;;
43626;SDS011;29217;52.586;13.442;2023-04-06T10:35:09;6.13;;;1.70;;
43626;SDS011;29217;52.586;13.442;2023-04-06T10:40:37;3.72;;;1.83;;
43626;SDS011;29217;52.586;13.442;2023-04-06T10:43:07;3.08;;;2.17;;
43626;SDS011;29217;52.586;13.442;2023-04-06T10:45:37;10.77;;;2.08;;
43626;SDS011;29217;52.586;13.442;2023-04-06T10:48:16;3.97;;;2.15;;
43626;SDS011;29217;52.586;13.442;2023-04-06T10:50:43;2.95;;;1.80;;
43626;SDS011;29217;52.586;13.442;2023-04-06T10:53:19;2.75;;;1.60;;
43626;SDS011;29217;52.586;13.442;2023-04-06T10:55:47;2.83;;;1.50;;
43626;SDS011;29217;52.586;13.442;2023-04-06T10:58:15;5.20;;;1.75;;
43626;SDS011;29217;52.586;13.442;2023-04-06T11:00:47;4.13;;;1.55;;
43626;SDS011;29217;52.586;13.442;2023-04-06T11:03:13;1.80;;;1.60;;
43626;SDS011;29217;52.586;13.442;2023-04-06T11:05:47;2.42;;;1.58;;
43626;SDS011;29217;52.586;13.442;2023-04-06T11:08:25;3.67;;;1.85;;
43626;SDS011;29217;52.586;13.442;2023-04-06T11:10:52;2.88;;;1.70;;
43626;SDS011;29217;52.586;13.442;2023-04-06T11:16:21;2.35;;;1.98;;
43626;SDS011;29217;52.586;13.442;2023-04-06T11:18:51;3.50;;;2.00;;
43626;SDS011;29217;52.586;13.442;2023-04-06T11:24:21;2.88;;;1.75;;
43626;SDS011;29217;52.586;13.442;2023-04-06T11:26:49;3.65;;;1.88;;
43626;SDS011;29217;52.586;13.442;2023-04-06T11:29:23;3.83;;;1.60;;
43626;SDS011;29217;52.586;13.442;2023-04-06T11:31:52;2.20;;;1.70;;
43626;SDS011;29217;52.586;13.442;2023-04-06T11:34:23;6.28;;;1.73;;
43626;SDS011;29217;52.586;13.442;2023-04-06T11:36:55;4.20;;;1.35;;
43626;SDS011;29217;52.586;13.442;2023-04-06T11:39:22;2.50;;;1.60;;
43626;SDS011;29217;52.586;13.442;2023-04-06T11:41:54;2.97;;;1.60;;
43626;SDS011;29217;52.586;13.442;2023-04-06T11:44:34;2.92;;;1.63;;
43626;SDS011;29217;52.586;13.442;2023-04-06T11:47:04;4.78;;;1.60;;
43626;SDS011;29217;52.586;13.442;2023-04-06T11:49:32;2.60;;;1.60;;
43626;SDS011;29217;52.586;13.442;2023-04-06T11:51:58;3.45;;;1.75;;
43626;SDS011;29217;52.586;13.442;2023-04-06T11:54:35;3.15;;;1.58;;
43626;SDS011;29217;52.586;13.442;2023-04-06T11:57:03;3.88;;;1.70;;
43626;SDS011;29217;52.586;13.442;2023-04-06T11:59:29;2.78;;;1.80;;
43626;SDS011;29217;52.586;13.442;2023-04-06T12:01:56;8.02;;;2.53;;
43626;SDS011;29217;52.586;13.442;2023-04-06T12:04:22;2.20;;;1.70;;
43626;SDS011;29217;52.586;13.442;2023-04-06T12:06:48;4.78;;;1.75;;
43626;SDS011;29217;52.586;13.442;2023-04-06T12:09:16;3.03;;;1.90;;
43626;SDS011;29217;52.586;13.442;2023-04-06T12:11:45;2.45;;;1.60;;
43626;SDS011;29217;52.586;13.442;2023-04-06T12:14:11;9.88;;;2.20;;
43626;SDS011;29217;52.586;13.442;2023-04-06T12:16:37;2.78;;;1.77;;
43626;SDS011;29217;52.586;13.442;2023-04-06T12:19:03;3.10;;;1.60;;
43626;SDS011;29217;52.586;13.442;2023-04-06T12:21:32;5.68;;;1.88;;
43626;SDS011;29217;52.586;13.442;2023-04-06T12:24:00;3.53;;;1.60;;
43626;SDS011;29217;52.586;13.442;2023-04-06T12:26:26;13.60;;;2.47;;
43626;SDS011;29217;52.586;13.442;2023-04-06T12:28:52;10.35;;;2.55;;
43626;SDS011;29217;52.586;13.442;2023-04-06T12:31:18;4.97;;;1.80;;
43626;SDS011;29217;52.586;13.442;2023-04-06T12:33:48;2.97;;;1.70;;
43626;SDS011;29217;52.586;13.442;2023-04-06T12:36:15;4.05;;;1.88;;
43626;SDS011;29217;52.586;13.442;2023-04-06T12:38:49;2.53;;;1.60;;
43626;SDS011;29217;52.586;13.442;2023-04-06T12:41:16;2.90;;;1.75;;
43626;SDS011;29217;52.586;13.442;2023-04-06T12:43:42;3.00;;;1.63;;
43626;SDS011;29217;52.586;13.442;2023-04-06T12:46:09;6.03;;;1.67;;
43626;SDS011;29217;52.586;13.442;2023-04-06T12:48:35;2.95;;;1.70;;
43626;SDS011;29217;52.586;13.442;2023-04-06T12:51:02;3.78;;;1.55;;
43626;SDS011;29217;52.586;13.442;2023-04-06T12:53:29;14.73;;;2.85;;
43626;SDS011;29217;52.586;13.442;2023-04-06T12:55:55;2.63;;;1.70;;
43626;SDS011;29217;52.586;13.442;2023-04-06T12:58:22;2.15;;;1.80;;
43626;SDS011;29217;52.586;13.442;2023-04-06T13:00:49;3.03;;;1.88;;
43626;SDS011;29217;52.586;13.442;2023-04-06T13:03:15;4.97;;;1.92;;
43626;SDS011;29217;52.586;13.442;2023-04-06T13:05:44;2.85;;;1.70;;
43626;SDS011;29217;52.586;13.442;2023-04-06T13:08:11;3.22;;;1.65;;
43626;SDS011;29217;52.586;13.442;2023-04-06T13:10:37;15.80;;;2.50;;
43626;SDS011;29217;52.586;13.442;2023-04-06T13:13:03;4.82;;;2.00;;
43626;SDS011;29217;52.586;13.442;2023-04-06T13:15:29;4.72;;;2.13;;
43626;SDS011;29217;52.586;13.442;2023-04-06T13:17:54;2.65;;;1.60;;
43626;SDS011;29217;52.586;13.442;2023-04-06T13:20:20;2.95;;;1.80;;
43626;SDS011;29217;52.586;13.442;2023-04-06T13:22:46;3.33;;;1.83;;
43626;SDS011;29217;52.586;13.442;2023-04-06T13:25:12;2.67;;;1.70;;
43626;SDS011;29217;52.586;13.442;2023-04-06T13:27:37;2.75;;;1.70;;
43626;SDS011;29217;52.586;13.442;2023-04-06T13:30:03;3.10;;;1.80;;
43626;SDS011;29217;52.586;13.442;2023-04-06T13:32:30;5.25;;;2.20;;
43626;SDS011;29217;52.586;13.442;2023-04-06T13:34:55;6.60;;;2.25;;
43626;SDS011;29217;52.586;13.442;2023-04-06T13:37:22;3.88;;;2.05;;
43626;SDS011;29217;52.586;13.442;2023-04-06T13:39:47;7.78;;;2.10;;
43626;SDS011;29217;52.586;13.442;2023-04-06T13:42:13;2.97;;;1.83;;
43626;SDS011;29217;52.586;13.442;2023-04-06T13:44:39;2.15;;;1.60;;
43626;SDS011;29217;52.586;13.442;2023-04-06T13:47:05;5.38;;;1.67;;
43626;SDS011;29217;52.586;13.442;2023-04-06T13:49:30;6.72;;;1.77;;
43626;SDS011;29217;52.586;13.442;2023-04-06T13:51:57;5.75;;;1.77;;
43626;SDS011;29217;52.586;13.442;2023-04-06T13:54:23;5.63;;;1.75;;
43626;SDS011;29217;52.586;13.442;2023-04-06T13:56:48;7.53;;;2.05;;
43626;SDS011;29217;52.586;13.442;2023-04-06T13:59:14;3.00;;;1.65;;
43626;SDS011;29217;52.586;13.442;2023-04-06T14:01:40;3.30;;;1.67;;
43626;SDS011;29217;52.586;13.442;2023-04-06T14:04:05;4.35;;;2.10;;
43626;SDS011;29217;52.586;13.442;2023-04-06T14:06:31;3.70;;;1.77;;
43626;SDS011;29217;52.586;13.442;2023-04-06T14:08:57;4.20;;;1.77;;
43626;SDS011;29217;52.586;13.442;2023-04-06T14:11:23;9.23;;;1.90;;
43626;SDS011;29217;52.586;13.442;2023-04-06T14:13:48;2.70;;;2.00;;
43626;SDS011;29217;52.586;13.442;2023-04-06T14:16:14;5.10;;;1.80;;
43626;SDS011;29217;52.586;13.442;2023-04-06T14:18:40;6.72;;;2.08;;
43626;SDS011;29217;52.586;13.442;2023-04-06T14:21:05;3.92;;;2.58;;
43626;SDS011;29217;52.586;13.442;2023-04-06T14:23:31;3.53;;;2.00;;
43626;SDS011;29217;52.586;13.442;2023-04-06T14:26:04;5.53;;;1.85;;
43626;SDS011;29217;52.586;13.442;2023-04-06T14:28:30;3.53;;;2.00;;
43626;SDS011;29217;52.586;13.442;2023-04-06T14:31:01;2.38;;;1.58;;
43626;SDS011;29217;52.586;13.442;2023-04-06T14:33:34;2.92;;;1.83;;
43626;SDS011;29217;52.586;13.442;2023-04-06T14:36:02;2.60;;;1.50;;